sensor_id;sensor_type;location;lat;lon;timestamp;pressure;altitude;pressure_sealevel;temperature;humidity
69214;BME280;56325;47.030;18.518;2023-03-03T00:00:24;100699.22;;;6.95;80.55
69214;BME280;56325;47.030;18.518;2023-03-03T00:03:00;100691.72;;;6.99;80.44
69214;BME280;56325;47.030;18.518;2023-03-03T00:05:38;100701.03;;;7.01;80.16
69214;BME280;56325;47.030;18.518;2023-03-03T00:08:13;100695.50;;;7.05;79.96
69214;BME280;56325;47.030;18.518;2023-03-03T00:10:47;100704.03;;;7.07;79.76
69214;BME280;56325;47.030;18.518;2023-03-03T00:13:24;100703.34;;;7.03;80.17
69214;BME280;56325;47.030;18.518;2023-03-03T00:16:12;100701.87;;;6.98;80.26
69214;BME280;56325;47.030;18.518;2023-03-03T00:18:46;100702.66;;;6.99;80.43
69214;BME280;56325;47.030;18.518;2023-03-03T00:21:27;100698.37;;;6.98;80.44
69214;BME280;56325;47.030;18.518;2023-03-03T00:24:15;100687.84;;;6.96;80.58
69214;BME280;56325;47.030;18.518;2023-03-03T00:26:51;100685.53;;;6.95;80.39
69214;BME280;56325;47.030;18.518;2023-03-03T00:29:30;100688.88;;;6.86;80.68
69214;BME280;56325;47.030;18.518;2023-03-03T00:32:35;100696.72;;;6.84;81.09
69214;BME280;56325;47.030;18.518;2023-03-03T00:35:23;100688.81;;;6.70;81.40
69214;BME280;56325;47.030;18.518;2023-03-03T00:38:01;100687.69;;;6.67;81.67
69214;BME280;56325;47.030;18.518;2023-03-03T00:40:37;100677.16;;;6.85;81.08
69214;BME280;56325;47.030;18.518;2023-03-03T00:43:18;100684.25;;;6.83;81.15
69214;BME280;56325;47.030;18.518;2023-03-03T00:45:54;100682.22;;;6.87;80.47
69214;BME280;56325;47.030;18.518;2023-03-03T00:48:30;100675.47;;;6.92;80.60
69214;BME280;56325;47.030;18.518;2023-03-03T00:51:26;100677.34;;;6.95;80.35
69214;BME280;56325;47.030;18.518;2023-03-03T00:54:03;100684.69;;;6.98;80.23
69214;BME280;56325;47.030;18.518;2023-03-03T00:56:37;100671.72;;;6.85;80.47
69214;BME280;56325;47.030;18.518;2023-03-03T00:59:14;100681.97;;;6.98;80.17
69214;BME280;56325;47.030;18.518;2023-03-03T01:01:49;100670.78;;;6.92;80.41
69214;BME280;56325;47.030;18.518;2023-03-03T01:04:24;100671.09;;;6.94;80.35
69214;BME280;56325;47.030;18.518;2023-03-03T01:06:59;100661.81;;;6.92;80.58
69214;BME280;56325;47.030;18.518;2023-03-03T01:09:34;100658.03;;;6.85;80.98
69214;BME280;56325;47.030;18.518;2023-03-03T01:12:09;100658.97;;;6.95;80.82
69214;BME280;56325;47.030;18.518;2023-03-03T01:14:44;100661.28;;;6.97;80.65
69214;BME280;56325;47.030;18.518;2023-03-03T01:17:22;100657.37;;;6.98;80.58
69214;BME280;56325;47.030;18.518;2023-03-03T01:19:57;100651.13;;;6.97;80.91
69214;BME280;56325;47.030;18.518;2023-03-03T01:22:31;100652.16;;;7.03;80.85
69214;BME280;56325;47.030;18.518;2023-03-03T01:25:08;100646.69;;;7.03;80.92
69214;BME280;56325;47.030;18.518;2023-03-03T01:27:42;100639.97;;;9.27;100.00
69214;BME280;56325;47.030;18.518;2023-03-03T01:30:17;100626.22;;;10.96;100.00
69214;BME280;56325;47.030;18.518;2023-03-03T01:32:51;100624.28;;;10.74;96.10
69214;BME280;56325;47.030;18.518;2023-03-03T01:35:26;100636.78;;;9.41;86.31
69214;BME280;56325;47.030;18.518;2023-03-03T01:38:02;100628.88;;;8.92;85.65
69214;BME280;56325;47.030;18.518;2023-03-03T01:40:38;100631.69;;;8.50;82.93
69214;BME280;56325;47.030;18.518;2023-03-03T01:43:14;100640.87;;;8.28;84.49
69214;BME280;56325;47.030;18.518;2023-03-03T01:49:12;100638.28;;;7.79;82.03
69214;BME280;56325;47.030;18.518;2023-03-03T01:51:49;100641.53;;;7.41;82.04
69214;BME280;56325;47.030;18.518;2023-03-03T01:54:28;100632.19;;;7.22;82.24
69214;BME280;56325;47.030;18.518;2023-03-03T01:57:07;100631.00;;;7.23;82.38
69214;BME280;56325;47.030;18.518;2023-03-03T01:59:46;100639.03;;;7.14;82.39
69214;BME280;56325;47.030;18.518;2023-03-03T02:02:23;100633.56;;;7.14;82.33
69214;BME280;56325;47.030;18.518;2023-03-03T02:04:58;100626.03;;;7.18;81.72
69214;BME280;56325;47.030;18.518;2023-03-03T02:07:33;100628.00;;;7.18;81.69
69214;BME280;56325;47.030;18.518;2023-03-03T02:10:11;100629.97;;;7.17;81.91
69214;BME280;56325;47.030;18.518;2023-03-03T02:12:50;100623.31;;;7.18;82.14
69214;BME280;56325;47.030;18.518;2023-03-03T02:15:28;100621.59;;;7.24;82.02
69214;BME280;56325;47.030;18.518;2023-03-03T02:18:06;100622.44;;;7.21;81.97
69214;BME280;56325;47.030;18.518;2023-03-03T02:20:53;100625.69;;;7.16;82.18
69214;BME280;56325;47.030;18.518;2023-03-03T02:23:35;100622.16;;;7.00;82.92
69214;BME280;56325;47.030;18.518;2023-03-03T02:26:15;100625.41;;;6.95;83.63
69214;BME280;56325;47.030;18.518;2023-03-03T02:28:51;100623.19;;;6.89;83.94
69214;BME280;56325;47.030;18.518;2023-03-03T02:31:27;100623.28;;;6.86;84.41
69214;BME280;56325;47.030;18.518;2023-03-03T02:34:03;100619.00;;;6.85;84.40
69214;BME280;56325;47.030;18.518;2023-03-03T02:36:38;100609.41;;;6.77;84.84
69214;BME280;56325;47.030;18.518;2023-03-03T02:39:16;100619.84;;;6.82;84.91
69214;BME280;56325;47.030;18.518;2023-03-03T02:41:57;100610.78;;;6.85;84.74
69214;BME280;56325;47.030;18.518;2023-03-03T02:44:34;100610.88;;;6.81;84.84
69214;BME280;56325;47.030;18.518;2023-03-03T02:47:09;100606.03;;;6.89;84.75
69214;BME280;56325;47.030;18.518;2023-03-03T02:49:44;100607.38;;;6.81;84.92
69214;BME280;56325;47.030;18.518;2023-03-03T02:52:18;100608.50;;;6.83;84.95
69214;BME280;56325;47.030;18.518;2023-03-03T02:54:54;100613.19;;;6.83;85.13
69214;BME280;56325;47.030;18.518;2023-03-03T02:57:29;100610.25;;;6.74;85.12
69214;BME280;56325;47.030;18.518;2023-03-03T03:00:05;100609.84;;;6.75;85.12
69214;BME280;56325;47.030;18.518;2023-03-03T03:02:40;100602.75;;;6.78;84.94
69214;BME280;56325;47.030;18.518;2023-03-03T03:05:15;100609.06;;;6.75;85.11
69214;BME280;56325;47.030;18.518;2023-03-03T03:07:50;100601.47;;;6.82;84.98
69214;BME280;56325;47.030;18.518;2023-03-03T03:10:25;100598.59;;;6.89;84.62
69214;BME280;56325;47.030;18.518;2023-03-03T03:13:00;100604.72;;;6.77;84.76
69214;BME280;56325;47.030;18.518;2023-03-03T03:15:36;100593.56;;;6.88;84.72
69214;BME280;56325;47.030;18.518;2023-03-03T03:18:10;100596.63;;;6.90;84.36
69214;BME280;56325;47.030;18.518;2023-03-03T03:20:46;100598.31;;;6.84;84.61
69214;BME280;56325;47.030;18.518;2023-03-03T03:23:20;100590.63;;;6.79;84.95
69214;BME280;56325;47.030;18.518;2023-03-03T03:25:55;100592.00;;;6.87;84.50
69214;BME280;56325;47.030;18.518;2023-03-03T03:28:31;100589.84;;;6.78;84.61
69214;BME280;56325;47.030;18.518;2023-03-03T03:31:07;100590.19;;;6.80;84.62
69214;BME280;56325;47.030;18.518;2023-03-03T03:33:41;100568.19;;;6.87;84.28
69214;BME280;56325;47.030;18.518;2023-03-03T03:36:16;100572.94;;;6.83;84.38
69214;BME280;56325;47.030;18.518;2023-03-03T03:38:51;100579.13;;;6.87;84.22
69214;BME280;56325;47.030;18.518;2023-03-03T03:41:27;100578.84;;;6.82;84.14
69214;BME280;56325;47.030;18.518;2023-03-03T03:44:03;100576.37;;;6.87;83.78
69214;BME280;56325;47.030;18.518;2023-03-03T03:46:38;100580.22;;;6.90;83.91
69214;BME280;56325;47.030;18.518;2023-03-03T03:49:13;100575.69;;;6.83;83.91
69214;BME280;56325;47.030;18.518;2023-03-03T03:51:47;100581.16;;;6.83;83.95
69214;BME280;56325;47.030;18.518;2023-03-03T03:54:22;100575.00;;;6.79;83.95
69214;BME280;56325;47.030;18.518;2023-03-03T03:56:57;100583.63;;;6.78;84.01
69214;BME280;56325;47.030;18.518;2023-03-03T03:59:33;100579.06;;;6.71;84.39
69214;BME280;56325;47.030;18.518;2023-03-03T04:02:08;100572.34;;;6.76;84.37
69214;BME280;56325;47.030;18.518;2023-03-03T04:04:42;100563.13;;;6.86;83.97
69214;BME280;56325;47.030;18.518;2023-03-03T04:07:17;100561.59;;;6.85;83.92
69214;BME280;56325;47.030;18.518;2023-03-03T04:09:52;100572.41;;;6.72;84.39
69214;BME280;56325;47.030;18.518;2023-03-03T04:12:27;100558.75;;;6.72;84.40
69214;BME280;56325;47.030;18.518;2023-03-03T04:15:04;100558.44;;;6.86;84.07
69214;BME280;56325;47.030;18.518;2023-03-03T04:17:39;100557.31;;;6.84;84.07
69214;BME280;56325;47.030;18.518;2023-03-03T04:20:14;100562.03;;;6.83;84.24
69214;BME280;56325;47.030;18.518;2023-03-03T04:22:49;100556.97;;;6.82;84.14
69214;BME280;56325;47.030;18.518;2023-03-03T04:25:24;100561.22;;;6.67;84.62
69214;BME280;56325;47.030;18.518;2023-03-03T04:27:59;100562.22;;;6.56;85.25
69214;BME280;56325;47.030;18.518;2023-03-03T04:30:38;100571.59;;;6.55;85.57
69214;BME280;56325;47.030;18.518;2023-03-03T04:33:13;100566.00;;;6.63;85.27
69214;BME280;56325;47.030;18.518;2023-03-03T04:35:48;100565.41;;;6.71;84.92
69214;BME280;56325;47.030;18.518;2023-03-03T04:38:23;100560.72;;;6.72;84.68
69214;BME280;56325;47.030;18.518;2023-03-03T04:40:59;100562.75;;;6.68;84.72
69214;BME280;56325;47.030;18.518;2023-03-03T04:43:33;100564.44;;;6.62;84.87
69214;BME280;56325;47.030;18.518;2023-03-03T04:46:10;100558.13;;;6.65;84.72
69214;BME280;56325;47.030;18.518;2023-03-03T04:48:44;100565.06;;;6.69;84.48
69214;BME280;56325;47.030;18.518;2023-03-03T04:51:19;100565.00;;;6.73;84.58
69214;BME280;56325;47.030;18.518;2023-03-03T04:53:54;100571.22;;;6.73;84.69
69214;BME280;56325;47.030;18.518;2023-03-03T04:56:29;100567.38;;;6.71;84.77
69214;BME280;56325;47.030;18.518;2023-03-03T04:59:04;100573.47;;;6.78;84.63
69214;BME280;56325;47.030;18.518;2023-03-03T05:01:41;100571.50;;;6.79;84.54
69214;BME280;56325;47.030;18.518;2023-03-03T05:04:15;100574.66;;;6.77;84.53
69214;BME280;56325;47.030;18.518;2023-03-03T05:06:50;100569.09;;;6.81;84.55
69214;BME280;56325;47.030;18.518;2023-03-03T05:09:25;100576.53;;;6.80;84.36
69214;BME280;56325;47.030;18.518;2023-03-03T05:11:59;100575.91;;;6.73;84.68
69214;BME280;56325;47.030;18.518;2023-03-03T05:14:34;100578.16;;;6.78;84.70
69214;BME280;56325;47.030;18.518;2023-03-03T05:17:09;100566.03;;;6.79;84.79
69214;BME280;56325;47.030;18.518;2023-03-03T05:19:44;100576.97;;;6.79;84.94
69214;BME280;56325;47.030;18.518;2023-03-03T05:22:18;100569.09;;;6.81;84.58
69214;BME280;56325;47.030;18.518;2023-03-03T05:24:53;100572.69;;;6.78;84.52
69214;BME280;56325;47.030;18.518;2023-03-03T05:27:28;100573.41;;;6.62;84.98
69214;BME280;56325;47.030;18.518;2023-03-03T05:30:03;100568.91;;;6.72;84.83
69214;BME280;56325;47.030;18.518;2023-03-03T05:32:39;100571.84;;;6.81;84.66
69214;BME280;56325;47.030;18.518;2023-03-03T05:35:13;100571.00;;;6.84;84.53
69214;BME280;56325;47.030;18.518;2023-03-03T05:37:48;100580.31;;;6.86;84.45
69214;BME280;56325;47.030;18.518;2023-03-03T05:40:22;100569.78;;;9.85;100.00
69214;BME280;56325;47.030;18.518;2023-03-03T05:42:57;100565.87;;;9.96;100.00
69214;BME280;56325;47.030;18.518;2023-03-03T05:45:32;100585.22;;;8.98;98.39
69214;BME280;56325;47.030;18.518;2023-03-03T05:48:08;100575.34;;;8.20;87.99
69214;BME280;56325;47.030;18.518;2023-03-03T05:50:43;100580.81;;;7.92;86.42
69214;BME280;56325;47.030;18.518;2023-03-03T05:53:17;100589.44;;;7.61;85.89
69214;BME280;56325;47.030;18.518;2023-03-03T05:55:52;100587.56;;;7.58;86.58
69214;BME280;56325;47.030;18.518;2023-03-03T05:58:27;100589.22;;;7.23;85.96
69214;BME280;56325;47.030;18.518;2023-03-03T06:01:02;100589.78;;;7.14;86.34
69214;BME280;56325;47.030;18.518;2023-03-03T06:03:38;100592.78;;;7.20;86.75
69214;BME280;56325;47.030;18.518;2023-03-03T06:06:12;100598.84;;;7.11;86.20
69214;BME280;56325;47.030;18.518;2023-03-03T06:08:49;100596.63;;;7.06;86.62
69214;BME280;56325;47.030;18.518;2023-03-03T06:11:28;100599.34;;;7.06;86.68
69214;BME280;56325;47.030;18.518;2023-03-03T06:14:03;100614.72;;;7.00;86.30
69214;BME280;56325;47.030;18.518;2023-03-03T06:16:37;100618.84;;;6.92;86.39
69214;BME280;56325;47.030;18.518;2023-03-03T06:19:15;100621.81;;;6.81;86.69
69214;BME280;56325;47.030;18.518;2023-03-03T06:21:49;100616.66;;;6.67;87.20
69214;BME280;56325;47.030;18.518;2023-03-03T06:24:24;100626.03;;;6.66;87.56
69214;BME280;56325;47.030;18.518;2023-03-03T06:27:02;100622.81;;;6.71;87.60
69214;BME280;56325;47.030;18.518;2023-03-03T06:29:36;100625.25;;;6.66;87.97
69214;BME280;56325;47.030;18.518;2023-03-03T06:32:11;100629.34;;;6.57;88.17
69214;BME280;56325;47.030;18.518;2023-03-03T06:34:47;100625.03;;;6.76;92.69
69214;BME280;56325;47.030;18.518;2023-03-03T06:37:21;100619.44;;;9.78;100.00
69214;BME280;56325;47.030;18.518;2023-03-03T06:39:56;100631.09;;;8.14;95.85
69214;BME280;56325;47.030;18.518;2023-03-03T06:42:30;100633.25;;;7.61;95.52
69214;BME280;56325;47.030;18.518;2023-03-03T06:45:05;100619.81;;;7.50;94.58
69214;BME280;56325;47.030;18.518;2023-03-03T06:47:40;100623.47;;;7.28;90.06
69214;BME280;56325;47.030;18.518;2023-03-03T06:50:17;100626.87;;;7.15;88.76
69214;BME280;56325;47.030;18.518;2023-03-03T06:53:01;100624.16;;;7.15;88.98
69214;BME280;56325;47.030;18.518;2023-03-03T06:55:36;100635.78;;;7.19;88.47
69214;BME280;56325;47.030;18.518;2023-03-03T06:58:12;100623.53;;;7.08;88.97
69214;BME280;56325;47.030;18.518;2023-03-03T07:02:59;100630.00;;;7.50;86.80
69214;BME280;56325;47.030;18.518;2023-03-03T07:05:35;100630.00;;;7.50;86.80
69214;BME280;56325;47.030;18.518;2023-03-03T07:08:13;100634.56;;;6.88;88.05
69214;BME280;56325;47.030;18.518;2023-03-03T07:10:49;100642.28;;;6.73;88.85
69214;BME280;56325;47.030;18.518;2023-03-03T07:13:25;100642.97;;;6.77;88.31
69214;BME280;56325;47.030;18.518;2023-03-03T07:16:02;100647.19;;;6.82;88.61
69214;BME280;56325;47.030;18.518;2023-03-03T07:18:47;100645.78;;;6.74;88.61
69214;BME280;56325;47.030;18.518;2023-03-03T07:21:29;100645.97;;;6.83;88.70
69214;BME280;56325;47.030;18.518;2023-03-03T07:24:18;100655.38;;;6.82;88.56
69214;BME280;56325;47.030;18.518;2023-03-03T07:26:58;100650.25;;;6.84;88.51
69214;BME280;56325;47.030;18.518;2023-03-03T07:29:36;100651.38;;;6.86;88.70
69214;BME280;56325;47.030;18.518;2023-03-03T07:32:21;100656.59;;;6.97;88.51
69214;BME280;56325;47.030;18.518;2023-03-03T07:34:59;100652.50;;;6.89;89.02
69214;BME280;56325;47.030;18.518;2023-03-03T07:37:36;100662.47;;;6.96;88.76
69214;BME280;56325;47.030;18.518;2023-03-03T07:40:34;100654.37;;;6.92;88.72
69214;BME280;56325;47.030;18.518;2023-03-03T07:46:22;100653.53;;;7.11;88.36
69214;BME280;56325;47.030;18.518;2023-03-03T07:49:00;100649.12;;;7.17;87.89
69214;BME280;56325;47.030;18.518;2023-03-03T07:51:38;100648.94;;;7.08;88.64
69214;BME280;56325;47.030;18.518;2023-03-03T07:54:26;100654.50;;;7.21;87.49
69214;BME280;56325;47.030;18.518;2023-03-03T07:57:13;100642.47;;;7.35;87.15
69214;BME280;56325;47.030;18.518;2023-03-03T07:59:49;100632.94;;;9.85;100.00
69214;BME280;56325;47.030;18.518;2023-03-03T08:02:36;100637.16;;;9.65;100.00
69214;BME280;56325;47.030;18.518;2023-03-03T08:05:28;100645.09;;;8.74;97.15
69214;BME280;56325;47.030;18.518;2023-03-03T08:08:26;100645.25;;;8.25;90.56
69214;BME280;56325;47.030;18.518;2023-03-03T08:11:03;100650.09;;;8.05;89.84
69214;BME280;56325;47.030;18.518;2023-03-03T08:13:38;100650.28;;;7.98;89.94
69214;BME280;56325;47.030;18.518;2023-03-03T08:16:26;100652.22;;;7.68;88.24
69214;BME280;56325;47.030;18.518;2023-03-03T08:19:04;100653.75;;;7.69;88.89
69214;BME280;56325;47.030;18.518;2023-03-03T08:21:39;100660.59;;;7.77;88.01
69214;BME280;56325;47.030;18.518;2023-03-03T08:24:15;100645.16;;;10.63;100.00
69214;BME280;56325;47.030;18.518;2023-03-03T08:26:49;100656.44;;;9.52;97.49
69214;BME280;56325;47.030;18.518;2023-03-03T08:29:24;100639.03;;;11.21;100.00
69214;BME280;56325;47.030;18.518;2023-03-03T08:31:58;100647.16;;;10.06;89.00
69214;BME280;56325;47.030;18.518;2023-03-03T08:34:33;100658.75;;;9.28;85.80
69214;BME280;56325;47.030;18.518;2023-03-03T08:37:07;100651.94;;;9.07;86.07
69214;BME280;56325;47.030;18.518;2023-03-03T08:39:43;100657.44;;;8.53;86.45
69214;BME280;56325;47.030;18.518;2023-03-03T08:42:18;100659.75;;;8.54;86.80
69214;BME280;56325;47.030;18.518;2023-03-03T08:44:52;100657.22;;;8.31;87.42
69214;BME280;56325;47.030;18.518;2023-03-03T08:47:27;100654.47;;;10.34;100.00
69214;BME280;56325;47.030;18.518;2023-03-03T08:50:01;100651.63;;;10.47;94.23
69214;BME280;56325;47.030;18.518;2023-03-03T08:52:36;100656.66;;;9.32;86.34
69214;BME280;56325;47.030;18.518;2023-03-03T08:55:12;100655.75;;;8.97;86.89
69214;BME280;56325;47.030;18.518;2023-03-03T08:57:46;100653.44;;;8.83;86.57
69214;BME280;56325;47.030;18.518;2023-03-03T09:00:21;100652.50;;;8.48;86.65
69214;BME280;56325;47.030;18.518;2023-03-03T09:02:56;100657.00;;;8.54;87.08
69214;BME280;56325;47.030;18.518;2023-03-03T09:05:30;100657.94;;;8.35;86.65
69214;BME280;56325;47.030;18.518;2023-03-03T09:08:06;100647.31;;;8.37;86.83
69214;BME280;56325;47.030;18.518;2023-03-03T09:10:42;100656.47;;;8.31;86.40
69214;BME280;56325;47.030;18.518;2023-03-03T09:13:18;100660.34;;;8.33;86.22
69214;BME280;56325;47.030;18.518;2023-03-03T09:15:52;100663.63;;;8.12;87.21
69214;BME280;56325;47.030;18.518;2023-03-03T09:18:30;100657.28;;;8.15;87.55
69214;BME280;56325;47.030;18.518;2023-03-03T09:21:18;100660.19;;;8.08;88.06
69214;BME280;56325;47.030;18.518;2023-03-03T09:23:55;100662.28;;;7.87;88.58
69214;BME280;56325;47.030;18.518;2023-03-03T09:26:41;100661.75;;;7.93;88.55
69214;BME280;56325;47.030;18.518;2023-03-03T09:29:24;100653.47;;;9.08;100.00
69214;BME280;56325;47.030;18.518;2023-03-03T09:32:05;100655.28;;;10.22;95.64
69214;BME280;56325;47.030;18.518;2023-03-03T09:34:42;100661.59;;;9.37;88.25
69214;BME280;56325;47.030;18.518;2023-03-03T09:37:20;100669.22;;;8.79;85.95
69214;BME280;56325;47.030;18.518;2023-03-03T09:39:56;100657.25;;;8.73;86.23
69214;BME280;56325;47.030;18.518;2023-03-03T09:42:50;100665.72;;;8.66;86.34
69214;BME280;56325;47.030;18.518;2023-03-03T09:45:56;100660.09;;;8.57;85.60
69214;BME280;56325;47.030;18.518;2023-03-03T09:48:51;100649.47;;;8.59;85.76
69214;BME280;56325;47.030;18.518;2023-03-03T09:51:39;100653.75;;;8.72;84.21
69214;BME280;56325;47.030;18.518;2023-03-03T09:54:29;100653.84;;;8.69;84.97
69214;BME280;56325;47.030;18.518;2023-03-03T09:57:11;100648.16;;;8.63;85.75
69214;BME280;56325;47.030;18.518;2023-03-03T10:00:02;100650.28;;;8.43;85.40
69214;BME280;56325;47.030;18.518;2023-03-03T10:02:49;100654.34;;;8.38;85.43
69214;BME280;56325;47.030;18.518;2023-03-03T10:05:40;100660.19;;;8.53;85.36
69214;BME280;56325;47.030;18.518;2023-03-03T10:08:39;100661.50;;;8.48;85.01
69214;BME280;56325;47.030;18.518;2023-03-03T10:11:19;100654.75;;;8.37;85.75
69214;BME280;56325;47.030;18.518;2023-03-03T10:14:14;100662.56;;;8.38;85.69
69214;BME280;56325;47.030;18.518;2023-03-03T10:17:02;100670.28;;;8.11;85.75
69214;BME280;56325;47.030;18.518;2023-03-03T10:19:40;100667.31;;;8.05;86.57
69214;BME280;56325;47.030;18.518;2023-03-03T10:22:23;100666.44;;;8.08;86.23
69214;BME280;56325;47.030;18.518;2023-03-03T10:25:07;100675.50;;;8.21;86.05
69214;BME280;56325;47.030;18.518;2023-03-03T10:28:04;100663.75;;;8.37;86.00
69214;BME280;56325;47.030;18.518;2023-03-03T10:30:48;100663.25;;;8.26;85.42
69214;BME280;56325;47.030;18.518;2023-03-03T10:33:46;100668.03;;;8.38;85.06
69214;BME280;56325;47.030;18.518;2023-03-03T10:36:35;100664.53;;;8.38;85.10
69214;BME280;56325;47.030;18.518;2023-03-03T10:39:39;100657.34;;;8.57;84.44
69214;BME280;56325;47.030;18.518;2023-03-03T10:42:32;100662.16;;;8.52;83.23
69214;BME280;56325;47.030;18.518;2023-03-03T10:45:35;100667.66;;;8.52;83.46
69214;BME280;56325;47.030;18.518;2023-03-03T10:48:26;100657.44;;;8.53;84.61
69214;BME280;56325;47.030;18.518;2023-03-03T10:51:18;100657.53;;;8.49;84.09
69214;BME280;56325;47.030;18.518;2023-03-03T10:54:07;100650.78;;;8.67;83.64
69214;BME280;56325;47.030;18.518;2023-03-03T10:56:48;100653.09;;;8.81;83.88
69214;BME280;56325;47.030;18.518;2023-03-03T10:59:43;100648.03;;;8.67;83.28
69214;BME280;56325;47.030;18.518;2023-03-03T11:02:26;100642.53;;;8.54;83.70
69214;BME280;56325;47.030;18.518;2023-03-03T11:05:13;100637.41;;;8.81;82.63
69214;BME280;56325;47.030;18.518;2023-03-03T11:07:55;100644.91;;;9.06;81.93
69214;BME280;56325;47.030;18.518;2023-03-03T11:13:39;100635.44;;;8.82;82.50
69214;BME280;56325;47.030;18.518;2023-03-03T11:16:24;100614.56;;;11.81;98.71
69214;BME280;56325;47.030;18.518;2023-03-03T11:19:16;100613.03;;;11.98;93.17
69214;BME280;56325;47.030;18.518;2023-03-03T11:22:05;100614.97;;;10.50;76.36
69214;BME280;56325;47.030;18.518;2023-03-03T11:24:53;100613.16;;;9.91;78.11
69214;BME280;56325;47.030;18.518;2023-03-03T11:27:46;100615.88;;;9.56;79.66
69214;BME280;56325;47.030;18.518;2023-03-03T11:30:30;100604.53;;;9.67;78.59
69214;BME280;56325;47.030;18.518;2023-03-03T11:33:10;100600.88;;;9.82;78.27
69214;BME280;56325;47.030;18.518;2023-03-03T11:35:49;100598.69;;;9.77;78.27
69214;BME280;56325;47.030;18.518;2023-03-03T11:38:43;100598.69;;;10.12;78.29
69214;BME280;56325;47.030;18.518;2023-03-03T11:41:28;100597.56;;;9.88;76.82
69214;BME280;56325;47.030;18.518;2023-03-03T11:44:10;100604.09;;;9.68;76.79
69214;BME280;56325;47.030;18.518;2023-03-03T11:46:49;100595.66;;;9.63;77.27
69214;BME280;56325;47.030;18.518;2023-03-03T11:49:28;100599.34;;;9.47;78.65
69214;BME280;56325;47.030;18.518;2023-03-03T11:52:20;100600.31;;;9.88;77.82
69214;BME280;56325;47.030;18.518;2023-03-03T11:54:59;100589.16;;;10.04;77.09
69214;BME280;56325;47.030;18.518;2023-03-03T11:57:37;100594.41;;;10.11;76.04
69214;BME280;56325;47.030;18.518;2023-03-03T12:00:27;100581.72;;;10.57;85.19
69214;BME280;56325;47.030;18.518;2023-03-03T12:03:14;100569.13;;;12.55;90.66
69214;BME280;56325;47.030;18.518;2023-03-03T12:05:56;100579.00;;;12.20;74.37
69214;BME280;56325;47.030;18.518;2023-03-03T12:08:44;100569.44;;;11.29;70.74
69214;BME280;56325;47.030;18.518;2023-03-03T12:11:26;100571.78;;;10.91;71.92
69214;BME280;56325;47.030;18.518;2023-03-03T12:14:08;100577.75;;;10.58;72.13
69214;BME280;56325;47.030;18.518;2023-03-03T12:16:51;100574.00;;;10.43;73.14
69214;BME280;56325;47.030;18.518;2023-03-03T12:19:34;100562.22;;;10.42;72.76
69214;BME280;56325;47.030;18.518;2023-03-03T12:22:21;100572.44;;;11.71;84.23
69214;BME280;56325;47.030;18.518;2023-03-03T12:25:22;100570.22;;;11.30;71.88
69214;BME280;56325;47.030;18.518;2023-03-03T12:28:03;100569.53;;;10.98;71.16
69214;BME280;56325;47.030;18.518;2023-03-03T12:31:02;100561.56;;;10.91;70.67
69214;BME280;56325;47.030;18.518;2023-03-03T12:33:52;100573.84;;;10.37;72.01
69214;BME280;56325;47.030;18.518;2023-03-03T12:36:49;100560.88;;;11.27;86.61
69214;BME280;56325;47.030;18.518;2023-03-03T12:39:37;100550.50;;;13.40;82.81
69214;BME280;56325;47.030;18.518;2023-03-03T12:42:23;100554.16;;;13.13;68.39
69214;BME280;56325;47.030;18.518;2023-03-03T12:45:09;100546.50;;;12.33;68.56
69214;BME280;56325;47.030;18.518;2023-03-03T12:47:54;100556.81;;;11.68;68.67
69214;BME280;56325;47.030;18.518;2023-03-03T12:50:38;100548.25;;;12.12;68.22
69214;BME280;56325;47.030;18.518;2023-03-03T12:53:27;100550.81;;;12.15;67.78
69214;BME280;56325;47.030;18.518;2023-03-03T12:56:07;100551.63;;;11.70;68.66
69214;BME280;56325;47.030;18.518;2023-03-03T12:58:49;100552.34;;;11.53;69.25
69214;BME280;56325;47.030;18.518;2023-03-03T13:01:39;100554.69;;;11.81;67.98
69214;BME280;56325;47.030;18.518;2023-03-03T13:04:28;100551.19;;;11.90;68.93
69214;BME280;56325;47.030;18.518;2023-03-03T13:07:12;100535.28;;;12.55;67.76
69214;BME280;56325;47.030;18.518;2023-03-03T13:10:01;100533.94;;;12.32;66.98
69214;BME280;56325;47.030;18.518;2023-03-03T13:12:42;100538.63;;;12.07;66.79
69214;BME280;56325;47.030;18.518;2023-03-03T13:15:21;100533.47;;;12.33;68.23
69214;BME280;56325;47.030;18.518;2023-03-03T13:18:23;100523.16;;;13.18;65.58
69214;BME280;56325;47.030;18.518;2023-03-03T13:21:04;100528.06;;;13.14;63.98
69214;BME280;56325;47.030;18.518;2023-03-03T13:23:48;100530.91;;;13.76;63.86
69214;BME280;56325;47.030;18.518;2023-03-03T13:26:26;100532.59;;;13.02;63.91
69214;BME280;56325;47.030;18.518;2023-03-03T13:29:10;100526.06;;;13.24;64.25
69214;BME280;56325;47.030;18.518;2023-03-03T13:31:48;100519.00;;;13.23;63.98
69214;BME280;56325;47.030;18.518;2023-03-03T13:34:36;100516.81;;;13.27;63.30
69214;BME280;56325;47.030;18.518;2023-03-03T13:37:19;100512.94;;;13.33;63.14
69214;BME280;56325;47.030;18.518;2023-03-03T13:39:58;100504.31;;;14.23;70.37
69214;BME280;56325;47.030;18.518;2023-03-03T13:42:38;100502.94;;;13.60;61.97
69214;BME280;56325;47.030;18.518;2023-03-03T13:45:18;100503.66;;;13.45;61.61
69214;BME280;56325;47.030;18.518;2023-03-03T13:48:02;100509.09;;;12.83;61.52
69214;BME280;56325;47.030;18.518;2023-03-03T13:50:45;100506.53;;;12.70;62.38
69214;BME280;56325;47.030;18.518;2023-03-03T13:53:36;100501.87;;;12.53;63.10
69214;BME280;56325;47.030;18.518;2023-03-03T13:56:28;100510.28;;;12.58;64.97
69214;BME280;56325;47.030;18.518;2023-03-03T13:59:11;100501.50;;;12.27;65.63
69214;BME280;56325;47.030;18.518;2023-03-03T14:01:56;100500.63;;;12.54;65.61
69214;BME280;56325;47.030;18.518;2023-03-03T14:04:45;100497.03;;;12.29;62.81